createdAt,value
2019-05-25T00:02:40.695Z,14.72
2019-05-25T00:12:55.911Z,14.60
2019-05-25T00:19:32.823Z,14.58
2019-05-25T00:26:02.922Z,14.65
2019-05-25T00:32:29.439Z,14.64
2019-05-25T00:38:34.371Z,14.59
2019-05-25T00:45:01.887Z,14.54
2019-05-25T00:51:30.047Z,14.60
2019-05-25T00:57:55.637Z,14.63
2019-05-25T01:04:32.546Z,14.54
2019-05-25T01:14:33.745Z,14.51
2019-05-25T01:20:59.569Z,14.42
2019-05-25T01:27:27.417Z,14.45
2019-05-25T01:37:19.067Z,14.27
2019-05-25T01:43:55.978Z,14.10
2019-05-25T01:50:24.700Z,13.98
2019-05-25T01:56:54.640Z,13.92
2019-05-25T02:03:22.541Z,13.84
2019-05-25T02:10:01.499Z,13.66
2019-05-25T02:16:17.418Z,13.57
2019-05-25T02:22:43.238Z,13.60
2019-05-25T02:29:09.058Z,13.54
2019-05-25T02:35:45.989Z,13.41
2019-05-25T02:42:13.613Z,13.59
2019-05-25T02:48:40.655Z,13.58
2019-05-25T02:55:33.640Z,13.65
2019-05-25T03:01:49.468Z,13.63
2019-05-25T03:08:22.818Z,13.52
2019-05-25T03:18:24.182Z,13.48
2019-05-25T03:25:03.084Z,13.33
2019-05-25T03:31:33.186Z,13.27
2019-05-25T03:37:23.608Z,13.34
2019-05-25T03:43:53.399Z,13.42
2019-05-25T03:50:30.398Z,13.21
2019-05-25T03:56:56.217Z,13.15
2019-05-25T04:03:21.795Z,13.17
2019-05-25T04:09:49.876Z,13.29
2019-05-25T04:20:03.959Z,13.38
2019-05-25T04:26:40.886Z,13.45
2019-05-25T04:33:06.452Z,13.44
2019-05-25T04:38:58.191Z,13.46
2019-05-25T04:45:39.198Z,13.61
2019-05-25T04:52:04.749Z,13.67
2019-05-25T04:58:30.602Z,13.79
2019-05-25T05:04:57.272Z,13.88
2019-05-25T05:11:38.276Z,13.98
2019-05-25T05:21:42.591Z,14.10
2019-05-25T05:28:07.397Z,14.20
2019-05-25T05:34:37.010Z,14.29
2019-05-25T05:41:21.280Z,14.37
2019-05-25T05:47:52.129Z,14.46
2019-05-25T05:54:18.738Z,14.52
2019-05-25T06:00:44.584Z,14.71
2019-05-25T06:07:21.487Z,14.94
2019-05-25T06:13:52.581Z,15.10
2019-05-25T06:24:09.691Z,15.38
2019-05-25T06:30:34.495Z,15.51
2019-05-25T06:36:57.960Z,15.68
2019-05-25T06:43:26.149Z,15.79
2019-05-25T06:49:53.749Z,15.90
2019-05-25T06:56:17.545Z,16.04
2019-05-25T07:02:56.573Z,16.17
2019-05-25T07:09:20.310Z,16.29
2019-05-25T07:15:46.977Z,16.34
2019-05-25T07:25:25.759Z,16.50
2019-05-25T07:31:51.905Z,16.66
2019-05-25T07:37:53.287Z,16.77
2019-05-25T07:44:19.957Z,16.90
2019-05-25T07:50:50.179Z,17.06
2019-05-25T07:57:29.130Z,17.10
2019-05-25T08:04:03.724Z,17.14
2019-05-25T08:10:29.860Z,17.16
2019-05-25T08:16:57.704Z,17.20
2019-05-25T08:27:11.780Z,17.31
2019-05-25T08:33:48.755Z,17.34
2019-05-25T08:40:15.457Z,17.44
2019-05-25T08:46:40.362Z,17.67
2019-05-25T08:53:23.189Z,17.81
2019-05-25T08:59:46.933Z,17.95
2019-05-25T09:06:14.645Z,17.98
2019-05-25T09:12:43.841Z,18.19
2019-05-25T09:19:22.790Z,18.34
2019-05-25T09:32:23.527Z,18.41
2019-05-25T09:39:05.499Z,18.58
2019-05-25T09:45:32.124Z,18.73
2019-05-25T09:52:00.840Z,18.83
2019-05-25T09:58:40.135Z,18.98
2019-05-25T10:05:12.017Z,18.98
2019-05-25T10:11:38.839Z,18.87
2019-05-25T10:18:07.594Z,18.84
2019-05-25T10:24:52.315Z,18.76
2019-05-25T10:34:52.644Z,18.69
2019-05-25T10:41:18.217Z,18.72
2019-05-25T10:47:46.101Z,18.82
2019-05-25T10:54:26.260Z,18.86
2019-05-25T11:00:56.123Z,18.89
2019-05-25T11:07:21.940Z,19.01
2019-05-25T11:13:58.874Z,19.19
2019-05-25T11:20:24.432Z,19.42
2019-05-25T11:26:52.331Z,19.56
2019-05-25T11:36:55.272Z,19.74
2019-05-25T11:43:21.122Z,19.74
2019-05-25T11:49:58.042Z,19.83
2019-05-25T11:56:25.079Z,20.02
2019-05-25T12:02:50.918Z,20.12
2019-05-25T12:09:20.764Z,20.26
2019-05-25T12:15:51.271Z,20.25
2019-05-25T12:22:17.456Z,20.17
2019-05-25T12:28:48.316Z,20.17
2019-05-25T12:38:13.546Z,20.17
2019-05-25T12:44:53.879Z,20.30
2019-05-25T12:51:20.715Z,20.28
2019-05-25T12:57:51.496Z,20.44
2019-05-25T13:04:19.071Z,20.45
2019-05-25T13:11:02.927Z,20.73
2019-05-25T13:17:27.154Z,20.88
2019-05-25T13:24:00.109Z,21.12
2019-05-25T13:30:39.736Z,21.43
2019-05-25T13:40:39.814Z,21.54
2019-05-25T13:47:03.821Z,21.41
2019-05-25T13:53:33.030Z,21.57
2019-05-25T13:59:58.491Z,21.64
2019-05-25T14:06:37.439Z,21.64
2019-05-25T14:13:03.269Z,21.69
2019-05-25T14:19:27.057Z,21.68
2019-05-25T14:26:05.749Z,21.68
2019-05-25T14:32:33.647Z,21.53
2019-05-25T14:42:34.798Z,21.58
2019-05-25T14:49:02.445Z,21.63
2019-05-25T14:54:52.100Z,21.58
2019-05-25T15:01:29.036Z,21.72
2019-05-25T15:07:56.639Z,21.69
2019-05-25T15:14:22.688Z,21.85
2019-05-25T15:20:52.443Z,22.06
2019-05-25T15:27:32.508Z,22.56
2019-05-25T15:34:00.111Z,23.09
2019-05-25T15:44:03.321Z,23.22
2019-05-25T15:50:30.955Z,23.28
2019-05-25T15:57:09.908Z,23.00
2019-05-25T16:03:38.623Z,22.58
2019-05-25T16:10:06.816Z,22.16
2019-05-25T16:13:46.892Z,21.93
2019-05-25T16:20:15.838Z,21.69
2019-05-25T16:26:55.814Z,21.48
2019-05-25T16:33:23.643Z,21.26
2019-05-25T16:39:49.460Z,20.97
2019-05-25T16:46:03.933Z,20.77
2019-05-25T16:52:44.937Z,20.57
2019-05-25T16:59:12.009Z,20.40
2019-05-25T17:05:37.789Z,20.16
2019-05-25T17:12:16.406Z,20.08
2019-05-25T17:18:42.561Z,20.00
2019-05-25T17:25:08.378Z,19.91
2019-05-25T17:31:35.482Z,19.73
2019-05-25T17:38:12.910Z,19.59
2019-05-25T17:48:04.798Z,19.45
2019-05-25T17:54:18.716Z,19.38
2019-05-25T18:00:52.607Z,19.25
2019-05-25T18:07:19.443Z,19.12
2019-05-25T18:13:58.391Z,18.93
2019-05-25T18:20:26.227Z,18.79
2019-05-25T18:26:52.048Z,18.66
2019-05-25T18:33:32.781Z,18.43
2019-05-25T18:39:58.629Z,18.17
2019-05-25T18:49:59.787Z,18.07
2019-05-25T18:55:51.269Z,18.15
2019-05-25T19:02:20.121Z,18.01
2019-05-25T19:08:59.874Z,18.03
2019-05-25T19:15:15.801Z,18.00
2019-05-25T19:21:08.292Z,17.90
2019-05-25T19:27:33.101Z,17.79
2019-05-25T19:34:09.682Z,17.74
2019-05-25T19:40:39.950Z,17.70
2019-05-25T19:50:56.144Z,17.54
2019-05-25T19:56:45.445Z,17.46
2019-05-25T20:03:13.286Z,17.41
2019-05-25T20:09:52.241Z,17.14
2019-05-25T20:16:24.927Z,16.77
2019-05-25T20:22:50.592Z,16.69
2019-05-25T20:29:27.498Z,16.57
2019-05-25T20:35:53.702Z,16.20
2019-05-25T20:42:21.540Z,16.28
2019-05-25T20:52:00.021Z,15.95
2019-05-25T20:58:25.875Z,15.63
2019-05-25T21:05:02.793Z,15.45
2019-05-25T21:15:15.077Z,15.39
2019-05-25T21:21:42.926Z,15.14
2019-05-25T21:28:06.720Z,14.95
2019-05-25T21:34:47.446Z,14.97
2019-05-25T21:41:20.418Z,14.56
2019-05-25T21:47:46.404Z,14.71
2019-05-25T21:53:42.928Z,14.67
2019-05-25T22:00:29.959Z,14.53
2019-05-25T22:06:57.799Z,14.40
2019-05-25T22:13:28.280Z,14.33
2019-05-25T22:20:02.321Z,14.12
2019-05-25T22:26:28.167Z,14.09
2019-05-25T22:32:56.885Z,13.97
2019-05-25T22:39:23.059Z,13.79
2019-05-25T22:46:02.011Z,13.68
2019-05-25T22:55:31.046Z,13.43
2019-05-25T23:01:20.862Z,13.19
2019-05-25T23:07:48.749Z,13.22
2019-05-25T23:14:15.803Z,13.20
2019-05-25T23:20:56.749Z,13.23
2019-05-25T23:27:22.568Z,13.14
2019-05-25T23:33:50.171Z,12.81
2019-05-25T23:40:31.177Z,12.80
2019-05-25T23:46:54.980Z,12.61
2019-05-25T23:56:32.524Z,12.56
